createdAt,value
2023-04-25T00:01:10.178Z,81.79
2023-04-25T00:05:12.221Z,81.71
2023-04-25T00:09:14.230Z,81.81
2023-04-25T00:13:18.592Z,81.59
2023-04-25T00:17:20.484Z,81.66
2023-04-25T00:21:22.466Z,81.91
2023-04-25T00:25:24.697Z,81.98
2023-04-25T00:29:26.564Z,81.41
2023-04-25T00:33:28.414Z,81.45
2023-04-25T00:37:30.245Z,80.91
2023-04-25T00:41:32.212Z,80.64
2023-04-25T00:45:39.020Z,80.73
2023-04-25T00:49:41.013Z,80.27
2023-04-25T00:53:43.241Z,80.44
2023-04-25T00:57:45.216Z,80.23
2023-04-25T01:01:47.304Z,80.10
2023-04-25T01:05:49.535Z,79.80
2023-04-25T01:09:53.383Z,79.58
2023-04-25T01:13:55.314Z,79.16
2023-04-25T01:17:59.290Z,79.47
2023-04-25T01:22:01.841Z,79.45
2023-04-25T01:26:06.678Z,79.25
2023-04-25T01:30:09.279Z,79.48
2023-04-25T01:34:11.643Z,79.42
2023-04-25T01:38:13.588Z,79.26
2023-04-25T01:42:15.502Z,79.14
2023-04-25T01:46:17.872Z,79.47
2023-04-25T01:50:20.460Z,79.18
2023-04-25T01:54:23.227Z,79.49
2023-04-25T01:58:25.344Z,79.30
2023-04-25T02:02:46.127Z,79.19
2023-04-25T02:06:57.671Z,78.65
2023-04-25T02:11:05.342Z,78.71
2023-04-25T02:15:14.636Z,78.36
2023-04-25T02:19:26.799Z,77.85
2023-04-25T02:23:29.846Z,78.15
2023-04-25T02:27:32.143Z,77.97
2023-04-25T02:31:34.291Z,77.60
2023-04-25T02:35:36.221Z,77.69
2023-04-25T02:39:38.171Z,77.78
2023-04-25T02:43:39.976Z,77.38
2023-04-25T02:47:41.993Z,77.66
2023-04-25T02:51:43.829Z,77.20
2023-04-25T02:55:45.823Z,77.17
2023-04-25T02:59:47.733Z,76.97
2023-04-25T03:03:49.861Z,76.58
2023-04-25T03:07:52.153Z,76.90
2023-04-25T03:11:54.345Z,77.35
2023-04-25T03:15:56.728Z,77.55
2023-04-25T03:19:59.016Z,77.94
2023-04-25T03:24:03.230Z,78.05
2023-04-25T03:28:05.525Z,78.53
2023-04-25T03:32:08.076Z,78.48
2023-04-25T03:36:10.745Z,78.65
2023-04-25T03:40:13.837Z,78.55
2023-04-25T03:44:35.791Z,78.22
2023-04-25T03:48:38.252Z,78.59
2023-04-25T03:52:40.467Z,78.25
2023-04-25T03:56:42.371Z,78.30
2023-04-25T04:00:53.234Z,78.66
2023-04-25T04:04:55.477Z,78.59
2023-04-25T04:08:57.904Z,78.70
2023-04-25T04:13:00.150Z,78.78
2023-04-25T04:17:02.260Z,79.04
2023-04-25T04:21:04.824Z,78.55
2023-04-25T04:25:10.766Z,78.86
2023-04-25T04:29:31.361Z,78.18
2023-04-25T04:33:37.924Z,78.51
2023-04-25T04:37:41.169Z,78.31
2023-04-25T04:41:46.594Z,78.98
2023-04-25T04:46:07.777Z,78.93
2023-04-25T04:50:48.691Z,78.95
2023-04-25T04:55:01.059Z,78.63
2023-04-25T04:59:21.335Z,78.53
2023-04-25T05:03:35.868Z,78.30
2023-04-25T05:08:07.756Z,78.40
2023-04-25T05:12:28.491Z,78.24
2023-04-25T05:16:51.000Z,78.26
2023-04-25T05:21:10.300Z,78.12
2023-04-25T05:25:35.501Z,78.34
2023-04-25T05:29:56.915Z,78.95
2023-04-25T05:34:02.848Z,78.67
2023-04-25T05:38:15.957Z,79.29
2023-04-25T05:42:36.410Z,79.08
2023-04-25T05:47:06.102Z,79.06
2023-04-25T05:51:27.177Z,78.90
2023-04-25T05:55:48.104Z,78.75
2023-04-25T05:59:57.103Z,80.86
2023-04-25T06:04:15.522Z,81.32
2023-04-25T06:08:17.696Z,80.99
2023-04-25T06:12:19.501Z,81.28
2023-04-25T06:16:22.549Z,81.21
2023-04-25T06:20:25.775Z,80.95
2023-04-25T06:24:29.773Z,80.72
2023-04-25T06:28:32.250Z,80.38
2023-04-25T06:32:35.613Z,80.51
2023-04-25T06:36:37.633Z,80.21
2023-04-25T06:40:43.749Z,80.37
2023-04-25T06:44:46.274Z,80.27
2023-04-25T06:48:49.979Z,79.85
2023-04-25T06:52:53.385Z,80.02
2023-04-25T06:56:57.457Z,79.50
2023-04-25T07:00:59.443Z,80.18
2023-04-25T07:05:02.314Z,78.80
2023-04-25T07:09:05.914Z,77.19
2023-04-25T07:13:08.055Z,74.08
2023-04-25T07:17:09.977Z,73.07
2023-04-25T07:21:12.927Z,71.64
2023-04-25T07:25:18.285Z,72.14
2023-04-25T07:29:20.144Z,71.24
2023-04-25T07:33:22.093Z,69.88
2023-04-25T07:37:24.117Z,68.88
2023-04-25T07:41:37.946Z,67.01
2023-04-25T07:45:40.889Z,66.17
2023-04-25T07:49:42.888Z,66.39
2023-04-25T07:53:45.632Z,67.17
2023-04-25T07:57:50.424Z,66.58
2023-04-25T08:01:52.548Z,64.85
2023-04-25T08:05:55.946Z,66.37
2023-04-25T08:10:00.009Z,65.72
2023-04-25T08:14:07.152Z,64.72
2023-04-25T08:18:10.357Z,64.98
2023-04-25T08:22:12.206Z,64.75
2023-04-25T08:26:23.883Z,64.07
2023-04-25T08:30:26.736Z,63.76
2023-04-25T08:34:28.830Z,62.81
2023-04-25T08:38:31.469Z,63.62
2023-04-25T08:42:35.603Z,63.61
2023-04-25T08:46:42.991Z,61.93
2023-04-25T08:51:01.044Z,61.16
2023-04-25T08:55:04.833Z,60.39
2023-04-25T08:59:09.327Z,60.98
2023-04-25T09:03:12.876Z,61.51
2023-04-25T09:07:19.726Z,64.04
2023-04-25T09:11:23.513Z,67.02
2023-04-25T09:15:27.997Z,68.14
2023-04-25T09:19:40.862Z,68.25
2023-04-25T09:23:53.739Z,69.82
2023-04-25T09:27:57.203Z,69.43
2023-04-25T09:32:21.355Z,69.38
2023-04-25T09:36:28.292Z,69.11
2023-04-25T09:40:53.528Z,69.10
2023-04-25T09:45:05.178Z,69.78
2023-04-25T09:49:12.028Z,71.03
2023-04-25T09:53:21.913Z,70.45
2023-04-25T09:57:42.405Z,71.00
2023-04-25T10:01:44.832Z,69.79
2023-04-25T10:06:05.469Z,69.23
2023-04-25T10:10:08.016Z,69.42
2023-04-25T10:14:10.967Z,68.73
2023-04-25T10:18:13.611Z,67.49
2023-04-25T10:22:21.619Z,66.81
2023-04-25T10:26:24.281Z,68.25
2023-04-25T10:30:26.205Z,67.02
2023-04-25T10:34:43.217Z,67.75
2023-04-25T10:38:46.571Z,64.69
2023-04-25T10:42:48.388Z,63.80
2023-04-25T10:46:50.427Z,63.51
2023-04-25T10:51:08.401Z,61.65
2023-04-25T10:55:13.412Z,60.56
2023-04-25T10:59:19.820Z,59.76
2023-04-25T11:03:23.394Z,60.74
2023-04-25T11:07:34.777Z,58.60
2023-04-25T11:11:38.040Z,60.34
2023-04-25T11:15:39.959Z,60.41
2023-04-25T11:19:42.012Z,59.29
2023-04-25T11:23:47.447Z,58.56
2023-04-25T11:27:57.167Z,56.53
2023-04-25T11:31:59.940Z,58.16
2023-04-25T11:36:02.011Z,57.35
2023-04-25T11:40:07.571Z,57.44
2023-04-25T11:44:09.477Z,55.04
2023-04-25T11:48:11.419Z,56.27
2023-04-25T11:52:13.487Z,55.76
2023-04-25T11:56:15.387Z,56.33
2023-04-25T12:00:20.294Z,55.60
2023-04-25T12:04:24.214Z,54.34
2023-04-25T12:08:27.261Z,53.67
2023-04-25T12:12:36.295Z,55.49
2023-04-25T12:16:45.946Z,57.70
2023-04-25T12:20:47.865Z,58.56
2023-04-25T12:24:49.844Z,57.14
2023-04-25T12:28:51.927Z,56.14
2023-04-25T12:32:53.902Z,55.86
2023-04-25T12:36:56.055Z,55.82
2023-04-25T12:40:59.382Z,57.36
2023-04-25T12:45:01.403Z,57.21
2023-04-25T12:53:26.615Z,57.98
2023-04-25T12:55:52.555Z,57.75
2023-04-25T12:57:28.517Z,58.68
2023-04-25T13:01:30.710Z,57.83
2023-04-25T13:05:32.703Z,57.47
2023-04-25T13:09:34.681Z,59.56
2023-04-25T13:13:36.992Z,61.11
2023-04-25T13:17:39.585Z,63.60
2023-04-25T13:21:41.669Z,64.10
2023-04-25T13:25:43.519Z,64.05
2023-04-25T13:29:45.453Z,63.82
2023-04-25T13:33:47.385Z,63.24
2023-04-25T13:37:49.336Z,62.38
2023-04-25T13:41:51.549Z,61.79
2023-04-25T13:45:53.469Z,61.73
2023-04-25T13:49:55.742Z,59.60
2023-04-25T13:53:58.191Z,59.27
2023-04-25T13:58:00.029Z,59.16
2023-04-25T14:02:02.532Z,57.82
2023-04-25T14:06:05.719Z,57.93
2023-04-25T14:10:08.241Z,57.88
2023-04-25T14:14:10.421Z,56.98
2023-04-25T14:18:12.245Z,58.13
2023-04-25T14:22:16.729Z,57.15
2023-04-25T14:26:18.572Z,54.17
2023-04-25T14:30:21.850Z,55.48
2023-04-25T14:34:23.747Z,56.50
2023-04-25T14:38:26.751Z,55.84
2023-04-25T14:42:28.704Z,55.61
2023-04-25T14:46:30.778Z,56.36
2023-04-25T14:50:32.644Z,55.42
2023-04-25T14:54:34.664Z,56.37
2023-04-25T14:58:36.696Z,56.27
2023-04-25T15:02:38.841Z,55.87
2023-04-25T15:06:40.913Z,56.62
2023-04-25T15:10:43.046Z,56.92
2023-04-25T15:14:45.941Z,57.53
2023-04-25T15:18:47.931Z,57.34
2023-04-25T15:22:50.263Z,57.93
2023-04-25T15:26:52.641Z,58.43
2023-04-25T15:30:54.845Z,57.54
2023-04-25T15:34:56.645Z,56.85
2023-04-25T15:38:58.562Z,56.25
2023-04-25T15:43:00.753Z,56.19
2023-04-25T15:47:02.629Z,55.88
2023-04-25T15:51:04.573Z,56.21
2023-04-25T15:55:07.904Z,56.59
2023-04-25T15:59:09.802Z,56.49
2023-04-25T16:03:11.902Z,56.73
2023-04-25T16:07:14.979Z,57.82
2023-04-25T16:11:16.815Z,58.17
2023-04-25T16:15:18.800Z,57.72
2023-04-25T16:19:21.156Z,56.47
2023-04-25T16:23:23.066Z,57.20
2023-04-25T16:27:25.089Z,56.80
2023-04-25T16:31:27.010Z,56.40
2023-04-25T16:35:30.741Z,54.41
2023-04-25T16:39:32.530Z,56.03
2023-04-25T16:43:34.626Z,56.45
2023-04-25T16:47:36.594Z,55.67
2023-04-25T16:51:38.747Z,56.32
2023-04-25T16:55:40.654Z,56.47
2023-04-25T16:59:42.444Z,56.42
2023-04-25T17:03:44.610Z,56.74
2023-04-25T17:07:46.719Z,57.02
2023-04-25T17:11:48.775Z,57.29
2023-04-25T17:15:50.786Z,56.29
2023-04-25T17:19:53.138Z,55.52
2023-04-25T17:23:55.343Z,55.60
2023-04-25T17:27:57.340Z,55.96
2023-04-25T17:31:59.345Z,56.68
2023-04-25T17:36:01.189Z,56.90
2023-04-25T17:40:05.086Z,57.75
2023-04-25T17:44:06.987Z,58.04
2023-04-25T17:48:08.827Z,59.25
2023-04-25T17:52:11.238Z,59.72
2023-04-25T17:56:23.374Z,60.30
2023-04-25T18:00:28.115Z,60.61
2023-04-25T18:04:30.020Z,60.96
2023-04-25T18:08:32.490Z,61.25
2023-04-25T18:12:34.935Z,62.08
2023-04-25T18:16:36.826Z,61.82
2023-04-25T18:20:38.859Z,62.24
2023-04-25T18:24:40.793Z,62.73
2023-04-25T18:28:42.960Z,63.74
2023-04-25T18:32:44.913Z,63.90
2023-04-25T18:36:47.108Z,64.66
2023-04-25T18:40:58.127Z,64.46
2023-04-25T18:45:09.448Z,64.97
2023-04-25T18:49:11.713Z,65.19
2023-04-25T18:53:13.566Z,65.54
2023-04-25T18:57:17.844Z,65.84
2023-04-25T19:01:24.466Z,65.57
2023-04-25T19:05:26.623Z,65.85
2023-04-25T19:09:28.402Z,66.21
2023-04-25T19:13:31.346Z,66.42
2023-04-25T19:17:33.191Z,66.77
2023-04-25T19:21:36.059Z,66.71
2023-04-25T19:25:38.062Z,66.63
2023-04-25T19:29:44.458Z,66.53
2023-04-25T19:33:46.937Z,66.42
2023-04-25T19:37:48.757Z,66.48
2023-04-25T19:41:50.652Z,67.12
2023-04-25T19:45:52.468Z,67.38
2023-04-25T19:49:54.371Z,67.32
2023-04-25T19:53:56.695Z,67.40
2023-04-25T19:57:58.490Z,67.40
2023-04-25T20:02:01.042Z,67.60
2023-04-25T20:06:03.035Z,67.40
2023-04-25T20:10:09.527Z,67.82
2023-04-25T20:14:11.730Z,67.96
2023-04-25T20:18:13.936Z,67.83
2023-04-25T20:22:15.873Z,68.51
2023-04-25T20:26:17.748Z,68.07
2023-04-25T20:30:19.870Z,68.12
2023-04-25T20:34:22.992Z,68.60
2023-04-25T20:38:24.853Z,68.37
2023-04-25T20:42:29.730Z,68.57
2023-04-25T20:46:31.770Z,68.49
2023-04-25T20:50:33.998Z,68.89
2023-04-25T20:54:35.846Z,68.49
2023-04-25T20:58:37.718Z,68.77
2023-04-25T21:02:39.853Z,68.71
2023-04-25T21:06:42.017Z,68.20
2023-04-25T21:10:43.885Z,68.70
2023-04-25T21:14:45.860Z,68.69
2023-04-25T21:18:47.705Z,68.65
2023-04-25T21:22:53.803Z,68.34
2023-04-25T21:26:56.306Z,68.76
2023-04-25T21:30:58.470Z,68.53
2023-04-25T21:35:00.282Z,68.62
2023-04-25T21:39:02.117Z,68.70
2023-04-25T21:43:03.977Z,68.50
2023-04-25T21:47:06.011Z,68.70
2023-04-25T21:51:07.859Z,68.96
2023-04-25T21:55:10.939Z,68.94
2023-04-25T21:59:12.729Z,69.18
2023-04-25T22:03:16.262Z,69.33
2023-04-25T22:07:18.362Z,69.14
2023-04-25T22:11:23.815Z,69.36
2023-04-25T22:15:25.883Z,69.58
2023-04-25T22:19:31.477Z,69.54
2023-04-25T22:23:33.352Z,69.63
2023-04-25T22:27:35.237Z,69.42
2023-04-25T22:31:37.307Z,69.94
2023-04-25T22:35:39.145Z,69.75
2023-04-25T22:39:40.947Z,69.77
2023-04-25T22:43:42.859Z,69.79
2023-04-25T22:47:44.821Z,70.10
2023-04-25T22:51:49.214Z,70.31
2023-04-25T22:55:57.309Z,70.22
2023-04-25T22:59:59.278Z,70.68
2023-04-25T23:04:01.364Z,70.66
2023-04-25T23:08:03.743Z,70.73
2023-04-25T23:12:06.050Z,70.98
2023-04-25T23:16:09.522Z,70.98
2023-04-25T23:20:12.261Z,71.14
2023-04-25T23:24:14.123Z,71.07
2023-04-25T23:28:16.182Z,71.11
2023-04-25T23:32:18.809Z,71.38
2023-04-25T23:36:24.027Z,71.01
2023-04-25T23:40:26.353Z,70.95
2023-04-25T23:44:28.479Z,71.09
2023-04-25T23:48:30.576Z,71.62
2023-04-25T23:52:32.526Z,71.54
2023-04-25T23:56:34.336Z,72.06
